Flight Track Log - Related Links

Times and Time Zones

All times are in EDT time to prevent confusion due to time zone crossing. See the EJA929 flight status page for this flight to view local times or setup timezone preferences in your user account.

Time Position Orientation Groundspeed Altitude Reporting Facility
EDT Latitude Longitude Course Direction KTS MPH feet Rate Location/Type
Sun 11:31:23 PM 40.8333 -74.1167 255° West 201 231 1,600  Level New York TRACON
Sun 11:32:29 PM 40.8167 -74.2000 255° West 226 260 2,800 1,859 Climbing New York TRACON
Sun 11:34:56 PM 40.9297 -74.2067 357° North 186 214 8,200 2,464 Climbing Boston Center
Sun 11:35:56 PM 40.9750 -74.1144 57° Northeast 238 274 11,300 2,400 Climbing Boston Center
Sun 11:36:56 PM 41.0039 -73.9942 72° East 286 329 13,000 850 Climbing Boston Center
Sun 11:37:56 PM 41.0453 -73.8547 68° East 363 418 13,000  Level Boston Center
Sun 11:38:56 PM 41.0889 -73.6986 70° East 439 505 13,000  Level Boston Center
Sun 11:40:08 PM 41.1319 -73.5425 70° East 453 521 13,000  Level Boston Center
Sun 11:41:08 PM 41.1839 -73.3531 70° East 453 521 13,000 -50 Level Boston Center
Sun 11:42:08 PM 41.2308 -73.1908 69° East 453 521 12,900  Descending Boston Center
Sun 11:43:08 PM 41.2733 -73.0367 70° East 453 521 13,000 50 Climbing Boston Center
Sun 11:44:08 PM 41.3450 -72.9044 54° Northeast 439 505 13,000  Level Boston Center
Sun 11:45:08 PM 41.3831 -72.7500 72° East 439 505 13,000  Level Boston Center
Sun 11:46:08 PM 41.3728 -72.5839 95° East 434 499 13,000 -450 Level Boston Center
Sun 11:47:08 PM 41.3606 -72.4236 96° East 446 513 12,100 -1,000 Descending Boston Center
Sun 11:48:08 PM 41.3500 -72.2769 95° East 441 507 11,000 -537 Descending Boston Center
Sun 11:49:11 PM 41.3872 -72.1247 72° East 356 410 11,000 -550 Level Boston Center
Sun 11:50:08 PM 41.4306 -72.0386 56° Northeast 348 400 9,900 -1,487 Descending Boston Center
Sun 11:51:08 PM 41.4822 -71.9358 56° Northeast 312 359 8,100 -1,700 Descending Boston Center
Sun 11:52:08 PM 41.5194 -71.8550 58° Northeast 288 331 6,500 -1,059 Descending Boston Center
Sun 11:53:07 PM 41.5689 -71.7631 54° Northeast 277 319 6,000 -250 Descending Boston Center
Sun 11:54:08 PM 41.6269 -71.6986 40° Northeast 271 312 6,000  Level Boston Center
Sun 11:55:03 PM 41.6744 -71.6397 43° Northeast 234 269 6,000 52 Level Boston Center
Sun 11:56:03 PM 41.7242 -71.5889 37° Northeast 231 266 6,100  Climbing Boston Center
Sun 11:57:04 PM 41.7736 -71.5269 43° Northeast 234 269 6,000 -50 Descending Boston Center
Sun 11:58:04 PM 41.8211 -71.4733 40° Northeast 232 267 6,000 -290 Level Boston Center
Sun 11:59:08 PM 41.8747 -71.4114 41° Northeast 409 471 5,400 -484 Descending Boston Center
Mon 12:00:08 AM 41.9222 -71.3575 40° Northeast 251 289 5,000 -400 Descending Boston Center

Login

Don't have an account? Register now (free) for customized features, flight alerts, and more!